Canadian, TX

4:40 PM CDT on August 23, 2014 (GMT -0500)
Perry Lefors | Change Station
CLOSE
Current Station
Airport
Location: Pampa,
Elevation: 3245 ft
Nearby Weather Stations

Elev 3245 ft 35.61 °N, 101.00 °W | Updated 5 minutes ago

Scattered Clouds
Scattered Clouds
92 °F
Feels Like 90 °F
N
16
Wind Variable Wind from South
Gusts 25 mph

Today
High -- | Low -- °F
--% Chance of Precip.
Yesterday
High -- | Low -- °F
Precip. -- in
7:06 AM 8:20 PM
Waning Crescent, 3% visible
Pressure 29.92 in
Visibility 10.0 miles
Clouds Scattered Clouds 4500 ft
Scattered Clouds 5000 ft
Scattered Clouds 12000 ft
Heat Index 90 °F
Dew Point 53 °F
Humidity 27%
Rainfall 0.00 in
Snow Depth Not available.
UV 5 out of 12
Pollen 9.40 out of 12
Air Quality Not available.
Flu Activity Not available.
METAR KPPA 232135Z AUTO 19014G22KT 10SM SCT045 SCT050 SCT120 33/12 A2992 RMK AO2 LTG DSNT NW T03340119

More Conditions Fewer Conditions

Pressure 29.92 in
Visibility 10.0 miles
Clouds Scattered Clouds 4500 ft
Scattered Clouds 5000 ft
Scattered Clouds 12000 ft
Heat Index 90 °F
Dew Point 53 °F
Humidity 27%
Rainfall 0.00 in
Snow Depth Not available.
UV 5 out of 12
Pollen 9.40 out of 12
Air Quality Not available.
Flu Activity Not available.
METAR KPPA 232135Z AUTO 19014G22KT 10SM SCT045 SCT050 SCT120 33/12 A2992 RMK AO2 LTG DSNT NW T03340119

More Conditions Fewer Conditions

10-Day Weather Forecast

Almanac

Astronomy

Aug. 23, 2014 Rise Set
Actual Time 7:06 AM CDT 8:20 PM CDT
Civil Twilight 6:39 AM CDT 8:47 PM CDT
Nautical Twilight 6:07 AM CDT 9:19 PM CDT
Astronomical Twilight 5:34 AM CDT 9:52 PM CDT
Moon 5:25 AM CDT 7:06 PM CDT
Length of Visible Light 14h 07m
Length of Day
13h 14m
Tomorrow will be 2m 6s shorter.
Waning Crescent, 3% of the Moon is Illuminated
Today
Waning Crescent
Aug 25
New
Sep 2
First Quarter
Sep 8
Full
Sep 15
Last Quarter

Today's Extremes

State Highs State Lows

Community

WunderPhotos

Upload Photos

1,746,633 photos uploaded!

WunderBlogs® & News

By Dr. Jeff Masters
Director of Meteorology, Weather Underground
By Kari Strenfel
Meteorologist, Weather Underground
By Christopher C. Burt
Weather Historian, Weather Underground
August 23, 2014
August 23, 2014
August 23, 2014

Nearby

Snow Depth

Station Depth Elevation
No new snow has been reported.

Earthquake Activity

City Distance Mag. Time & Date
Cherokee, Oklahoma 126 miles 2.6 11:50 AM CDT
2014-08-17
Minimum magnitude displayed is 2.5.

Coastal Water Temperatures

Place Temperature
No Stations Reporting

Nearby Weather Stations